sensor_id;sensor_type;location;lat;lon;timestamp;temperature;humidity
48551;DHT22;34397;51.176;6.738;2023-09-19T00:02:13;16.20;73.70
48551;DHT22;34397;51.176;6.738;2023-09-19T00:04:44;16.20;74.20
48551;DHT22;34397;51.176;6.738;2023-09-19T00:07:16;16.10;73.50
48551;DHT22;34397;51.176;6.738;2023-09-19T00:09:48;16.10;73.90
48551;DHT22;34397;51.176;6.738;2023-09-19T00:12:22;16.10;74.20
48551;DHT22;34397;51.176;6.738;2023-09-19T00:14:56;16.10;74.20
48551;DHT22;34397;51.176;6.738;2023-09-19T00:17:28;16.10;74.20
48551;DHT22;34397;51.176;6.738;2023-09-19T00:20:02;16.00;73.90
48551;DHT22;34397;51.176;6.738;2023-09-19T00:22:40;16.00;74.10
48551;DHT22;34397;51.176;6.738;2023-09-19T00:25:13;16.00;74.50
48551;DHT22;34397;51.176;6.738;2023-09-19T00:27:47;16.00;74.60
48551;DHT22;34397;51.176;6.738;2023-09-19T00:30:24;16.00;74.70
48551;DHT22;34397;51.176;6.738;2023-09-19T00:32:56;16.00;74.20
48551;DHT22;34397;51.176;6.738;2023-09-19T00:35:28;16.00;74.30
48551;DHT22;34397;51.176;6.738;2023-09-19T00:38:00;16.00;73.90
48551;DHT22;34397;51.176;6.738;2023-09-19T00:40:32;15.90;73.50
48551;DHT22;34397;51.176;6.738;2023-09-19T00:43:06;15.90;73.80
48551;DHT22;34397;51.176;6.738;2023-09-19T00:45:43;15.90;74.20
48551;DHT22;34397;51.176;6.738;2023-09-19T00:48:19;15.90;74.30
48551;DHT22;34397;51.176;6.738;2023-09-19T00:50:51;15.90;74.30
48551;DHT22;34397;51.176;6.738;2023-09-19T00:53:24;15.80;73.30
48551;DHT22;34397;51.176;6.738;2023-09-19T00:55:57;15.80;73.60
48551;DHT22;34397;51.176;6.738;2023-09-19T00:58:31;15.80;74.20
48551;DHT22;34397;51.176;6.738;2023-09-19T01:01:04;15.90;73.90
48551;DHT22;34397;51.176;6.738;2023-09-19T01:03:37;15.90;74.20
48551;DHT22;34397;51.176;6.738;2023-09-19T01:06:10;15.80;73.60
48551;DHT22;34397;51.176;6.738;2023-09-19T01:08:42;15.90;74.20
48551;DHT22;34397;51.176;6.738;2023-09-19T01:11:17;15.90;73.80
48551;DHT22;34397;51.176;6.738;2023-09-19T01:13:57;15.80;73.80
48551;DHT22;34397;51.176;6.738;2023-09-19T01:16:39;15.90;74.20
48551;DHT22;34397;51.176;6.738;2023-09-19T01:19:54;15.80;73.80
48551;DHT22;34397;51.176;6.738;2023-09-19T01:22:48;15.90;73.60
48551;DHT22;34397;51.176;6.738;2023-09-19T01:28:54;15.90;73.40
48551;DHT22;34397;51.176;6.738;2023-09-19T01:31:40;15.90;73.50
48551;DHT22;34397;51.176;6.738;2023-09-19T01:34:14;15.90;73.70
48551;DHT22;34397;51.176;6.738;2023-09-19T01:36:46;15.90;73.40
48551;DHT22;34397;51.176;6.738;2023-09-19T01:39:18;15.80;73.30
48551;DHT22;34397;51.176;6.738;2023-09-19T01:41:58;15.80;73.30
48551;DHT22;34397;51.176;6.738;2023-09-19T01:44:43;15.80;73.30
48551;DHT22;34397;51.176;6.738;2023-09-19T01:47:23;15.80;73.60
48551;DHT22;34397;51.176;6.738;2023-09-19T01:50:03;15.80;73.80
48551;DHT22;34397;51.176;6.738;2023-09-19T01:52:47;15.90;74.30
48551;DHT22;34397;51.176;6.738;2023-09-19T01:55:21;15.90;73.80
48551;DHT22;34397;51.176;6.738;2023-09-19T01:58:01;15.90;74.00
48551;DHT22;34397;51.176;6.738;2023-09-19T02:00:38;15.90;73.30
48551;DHT22;34397;51.176;6.738;2023-09-19T02:03:13;15.90;73.00
48551;DHT22;34397;51.176;6.738;2023-09-19T02:05:49;15.80;73.00
48551;DHT22;34397;51.176;6.738;2023-09-19T02:08:22;15.80;73.00
48551;DHT22;34397;51.176;6.738;2023-09-19T02:10:55;15.70;72.80
48551;DHT22;34397;51.176;6.738;2023-09-19T02:13:27;15.80;73.20
48551;DHT22;34397;51.176;6.738;2023-09-19T02:15:59;15.70;72.70
48551;DHT22;34397;51.176;6.738;2023-09-19T02:18:34;15.70;73.30
48551;DHT22;34397;51.176;6.738;2023-09-19T02:21:06;15.70;72.80
48551;DHT22;34397;51.176;6.738;2023-09-19T02:23:40;15.70;72.50
48551;DHT22;34397;51.176;6.738;2023-09-19T02:26:12;15.70;72.00
48551;DHT22;34397;51.176;6.738;2023-09-19T02:28:44;15.70;72.70
48551;DHT22;34397;51.176;6.738;2023-09-19T02:31:16;15.70;72.50
48551;DHT22;34397;51.176;6.738;2023-09-19T02:33:49;15.60;72.00
48551;DHT22;34397;51.176;6.738;2023-09-19T02:36:21;15.60;71.70
48551;DHT22;34397;51.176;6.738;2023-09-19T02:38:54;15.60;71.90
48551;DHT22;34397;51.176;6.738;2023-09-19T02:41:25;15.50;71.50
48551;DHT22;34397;51.176;6.738;2023-09-19T02:44:00;15.50;71.80
48551;DHT22;34397;51.176;6.738;2023-09-19T02:46:32;15.40;72.20
48551;DHT22;34397;51.176;6.738;2023-09-19T02:49:05;15.40;72.40
48551;DHT22;34397;51.176;6.738;2023-09-19T02:51:37;15.40;72.20
48551;DHT22;34397;51.176;6.738;2023-09-19T02:54:09;15.40;72.20
48551;DHT22;34397;51.176;6.738;2023-09-19T02:56:41;15.40;72.20
48551;DHT22;34397;51.176;6.738;2023-09-19T02:59:13;15.40;71.60
48551;DHT22;34397;51.176;6.738;2023-09-19T03:01:46;15.40;71.70
48551;DHT22;34397;51.176;6.738;2023-09-19T03:04:20;15.40;72.00
48551;DHT22;34397;51.176;6.738;2023-09-19T03:06:52;15.40;71.40
48551;DHT22;34397;51.176;6.738;2023-09-19T03:09:29;15.40;71.00
48551;DHT22;34397;51.176;6.738;2023-09-19T03:12:01;15.40;70.60
48551;DHT22;34397;51.176;6.738;2023-09-19T03:14:34;15.30;71.30
48551;DHT22;34397;51.176;6.738;2023-09-19T03:17:08;15.30;71.10
48551;DHT22;34397;51.176;6.738;2023-09-19T03:19:42;15.30;70.60
48551;DHT22;34397;51.176;6.738;2023-09-19T03:22:15;15.30;70.90
48551;DHT22;34397;51.176;6.738;2023-09-19T03:24:47;15.30;70.70
48551;DHT22;34397;51.176;6.738;2023-09-19T03:27:19;15.20;71.30
48551;DHT22;34397;51.176;6.738;2023-09-19T03:29:52;15.20;70.70
48551;DHT22;34397;51.176;6.738;2023-09-19T03:32:26;15.30;71.10
48551;DHT22;34397;51.176;6.738;2023-09-19T03:34:59;15.30;70.50
48551;DHT22;34397;51.176;6.738;2023-09-19T03:37:31;15.20;69.90
48551;DHT22;34397;51.176;6.738;2023-09-19T03:40:04;15.20;70.50
48551;DHT22;34397;51.176;6.738;2023-09-19T03:42:38;15.20;70.90
48551;DHT22;34397;51.176;6.738;2023-09-19T03:45:10;15.20;70.70
48551;DHT22;34397;51.176;6.738;2023-09-19T03:47:43;15.10;70.70
48551;DHT22;34397;51.176;6.738;2023-09-19T03:50:18;15.10;70.50
48551;DHT22;34397;51.176;6.738;2023-09-19T03:52:50;15.10;71.00
48551;DHT22;34397;51.176;6.738;2023-09-19T03:55:29;15.10;71.40
48551;DHT22;34397;51.176;6.738;2023-09-19T03:58:02;15.10;71.20
48551;DHT22;34397;51.176;6.738;2023-09-19T04:00:34;15.10;71.40
48551;DHT22;34397;51.176;6.738;2023-09-19T04:03:07;15.10;71.60
48551;DHT22;34397;51.176;6.738;2023-09-19T04:05:40;15.10;71.00
48551;DHT22;34397;51.176;6.738;2023-09-19T04:08:12;15.00;70.70
48551;DHT22;34397;51.176;6.738;2023-09-19T04:10:44;15.10;71.10
48551;DHT22;34397;51.176;6.738;2023-09-19T04:13:16;15.00;71.10
48551;DHT22;34397;51.176;6.738;2023-09-19T04:15:48;15.10;71.30
48551;DHT22;34397;51.176;6.738;2023-09-19T04:18:20;15.10;71.70
48551;DHT22;34397;51.176;6.738;2023-09-19T04:20:55;15.10;71.80
48551;DHT22;34397;51.176;6.738;2023-09-19T04:23:26;15.10;71.20
48551;DHT22;34397;51.176;6.738;2023-09-19T04:25:58;15.10;71.40
48551;DHT22;34397;51.176;6.738;2023-09-19T04:28:30;15.10;71.10
48551;DHT22;34397;51.176;6.738;2023-09-19T04:31:04;15.10;71.20
48551;DHT22;34397;51.176;6.738;2023-09-19T04:33:38;15.10;70.20
48551;DHT22;34397;51.176;6.738;2023-09-19T04:36:11;15.10;70.90
48551;DHT22;34397;51.176;6.738;2023-09-19T04:38:43;15.10;70.80
48551;DHT22;34397;51.176;6.738;2023-09-19T04:41:15;15.10;71.00
48551;DHT22;34397;51.176;6.738;2023-09-19T04:43:47;15.00;70.40
48551;DHT22;34397;51.176;6.738;2023-09-19T04:46:21;15.00;70.30
48551;DHT22;34397;51.176;6.738;2023-09-19T04:48:53;15.00;70.60
48551;DHT22;34397;51.176;6.738;2023-09-19T04:51:26;15.00;70.90
48551;DHT22;34397;51.176;6.738;2023-09-19T04:54:01;15.00;71.00
48551;DHT22;34397;51.176;6.738;2023-09-19T04:56:33;15.00;71.20
48551;DHT22;34397;51.176;6.738;2023-09-19T04:59:05;15.00;70.20
48551;DHT22;34397;51.176;6.738;2023-09-19T05:01:37;15.00;71.10
48551;DHT22;34397;51.176;6.738;2023-09-19T05:04:09;15.00;70.50
48551;DHT22;34397;51.176;6.738;2023-09-19T05:06:43;15.00;70.70
48551;DHT22;34397;51.176;6.738;2023-09-19T05:09:15;15.00;70.50
48551;DHT22;34397;51.176;6.738;2023-09-19T05:11:49;15.00;69.90
48551;DHT22;34397;51.176;6.738;2023-09-19T05:14:23;14.90;70.30
48551;DHT22;34397;51.176;6.738;2023-09-19T05:16:55;14.90;70.70
48551;DHT22;34397;51.176;6.738;2023-09-19T05:19:29;14.90;69.80
48551;DHT22;34397;51.176;6.738;2023-09-19T05:22:03;14.90;69.00
48551;DHT22;34397;51.176;6.738;2023-09-19T05:24:37;14.90;69.10
48551;DHT22;34397;51.176;6.738;2023-09-19T05:27:09;14.90;70.10
48551;DHT22;34397;51.176;6.738;2023-09-19T05:29:42;14.90;68.30
48551;DHT22;34397;51.176;6.738;2023-09-19T05:32:14;14.90;70.00
48551;DHT22;34397;51.176;6.738;2023-09-19T05:34:50;14.90;68.70
48551;DHT22;34397;51.176;6.738;2023-09-19T05:37:24;14.90;69.20
48551;DHT22;34397;51.176;6.738;2023-09-19T05:39:56;14.90;70.00
48551;DHT22;34397;51.176;6.738;2023-09-19T05:42:28;15.00;70.60
48551;DHT22;34397;51.176;6.738;2023-09-19T05:45:01;15.10;70.80
48551;DHT22;34397;51.176;6.738;2023-09-19T05:47:33;15.10;70.90
48551;DHT22;34397;51.176;6.738;2023-09-19T05:50:06;15.20;70.60
48551;DHT22;34397;51.176;6.738;2023-09-19T05:52:43;15.30;70.30
48551;DHT22;34397;51.176;6.738;2023-09-19T05:55:16;15.40;69.60
48551;DHT22;34397;51.176;6.738;2023-09-19T05:57:49;15.40;69.50
48551;DHT22;34397;51.176;6.738;2023-09-19T06:00:24;15.50;69.30
48551;DHT22;34397;51.176;6.738;2023-09-19T06:03:02;15.60;69.10
48551;DHT22;34397;51.176;6.738;2023-09-19T06:05:35;15.70;68.60
48551;DHT22;34397;51.176;6.738;2023-09-19T06:08:11;15.70;69.00
48551;DHT22;34397;51.176;6.738;2023-09-19T06:10:43;15.70;69.00
48551;DHT22;34397;51.176;6.738;2023-09-19T06:13:17;15.80;68.80
48551;DHT22;34397;51.176;6.738;2023-09-19T06:15:50;15.80;68.60
48551;DHT22;34397;51.176;6.738;2023-09-19T06:18:22;15.90;68.70
48551;DHT22;34397;51.176;6.738;2023-09-19T06:20:56;15.90;69.20
48551;DHT22;34397;51.176;6.738;2023-09-19T06:23:30;15.90;69.10
48551;DHT22;34397;51.176;6.738;2023-09-19T06:26:04;15.90;68.60
48551;DHT22;34397;51.176;6.738;2023-09-19T06:28:37;16.00;68.40
48551;DHT22;34397;51.176;6.738;2023-09-19T06:31:09;16.10;68.60
48551;DHT22;34397;51.176;6.738;2023-09-19T06:33:44;16.10;68.60
48551;DHT22;34397;51.176;6.738;2023-09-19T06:36:23;16.10;69.00
48551;DHT22;34397;51.176;6.738;2023-09-19T06:38:59;16.10;68.10
48551;DHT22;34397;51.176;6.738;2023-09-19T06:41:32;16.10;68.40
48551;DHT22;34397;51.176;6.738;2023-09-19T06:44:05;16.10;68.30
48551;DHT22;34397;51.176;6.738;2023-09-19T06:46:37;16.10;68.20
48551;DHT22;34397;51.176;6.738;2023-09-19T06:49:11;16.10;68.30
48551;DHT22;34397;51.176;6.738;2023-09-19T06:51:45;16.10;68.10
48551;DHT22;34397;51.176;6.738;2023-09-19T06:54:19;16.10;68.10
48551;DHT22;34397;51.176;6.738;2023-09-19T06:56:51;16.10;68.20
48551;DHT22;34397;51.176;6.738;2023-09-19T06:59:23;16.10;68.70
48551;DHT22;34397;51.176;6.738;2023-09-19T07:01:55;16.10;68.50
48551;DHT22;34397;51.176;6.738;2023-09-19T07:04:30;16.10;68.30
48551;DHT22;34397;51.176;6.738;2023-09-19T07:07:05;16.10;68.60
48551;DHT22;34397;51.176;6.738;2023-09-19T07:09:40;16.10;68.10
48551;DHT22;34397;51.176;6.738;2023-09-19T07:12:13;16.00;68.40
48551;DHT22;34397;51.176;6.738;2023-09-19T07:14:49;16.00;68.10
48551;DHT22;34397;51.176;6.738;2023-09-19T07:17:21;15.90;68.70
48551;DHT22;34397;51.176;6.738;2023-09-19T07:19:54;15.90;69.20
48551;DHT22;34397;51.176;6.738;2023-09-19T07:22:26;15.90;69.40
48551;DHT22;34397;51.176;6.738;2023-09-19T07:25:00;15.90;68.90
48551;DHT22;34397;51.176;6.738;2023-09-19T07:27:31;15.90;68.90
48551;DHT22;34397;51.176;6.738;2023-09-19T07:30:10;16.00;68.40
48551;DHT22;34397;51.176;6.738;2023-09-19T07:32:43;15.90;68.70
48551;DHT22;34397;51.176;6.738;2023-09-19T07:35:17;15.90;69.30
48551;DHT22;34397;51.176;6.738;2023-09-19T07:37:50;15.90;68.80
48551;DHT22;34397;51.176;6.738;2023-09-19T07:40:23;15.90;68.90
48551;DHT22;34397;51.176;6.738;2023-09-19T07:42:57;15.90;69.30
48551;DHT22;34397;51.176;6.738;2023-09-19T07:45:31;15.90;69.20
48551;DHT22;34397;51.176;6.738;2023-09-19T07:48:04;16.00;69.00
48551;DHT22;34397;51.176;6.738;2023-09-19T07:50:44;15.90;68.90
48551;DHT22;34397;51.176;6.738;2023-09-19T07:53:18;15.90;69.30
48551;DHT22;34397;51.176;6.738;2023-09-19T07:55:51;15.70;68.70
48551;DHT22;34397;51.176;6.738;2023-09-19T07:58:27;15.70;69.10
48551;DHT22;34397;51.176;6.738;2023-09-19T08:01:06;15.70;69.10
48551;DHT22;34397;51.176;6.738;2023-09-19T08:03:39;15.80;69.10
48551;DHT22;34397;51.176;6.738;2023-09-19T08:06:12;15.80;69.10
48551;DHT22;34397;51.176;6.738;2023-09-19T08:08:44;15.90;69.30
48551;DHT22;34397;51.176;6.738;2023-09-19T08:11:20;16.00;69.00
48551;DHT22;34397;51.176;6.738;2023-09-19T08:13:54;16.00;68.70
48551;DHT22;34397;51.176;6.738;2023-09-19T08:16:26;16.00;68.50
48551;DHT22;34397;51.176;6.738;2023-09-19T08:18:58;16.10;68.60
48551;DHT22;34397;51.176;6.738;2023-09-19T08:21:30;16.10;68.30
48551;DHT22;34397;51.176;6.738;2023-09-19T08:24:08;16.10;68.10
48551;DHT22;34397;51.176;6.738;2023-09-19T08:26:42;16.10;67.90
48551;DHT22;34397;51.176;6.738;2023-09-19T08:29:15;16.10;68.00
48551;DHT22;34397;51.176;6.738;2023-09-19T08:31:48;16.10;68.20
48551;DHT22;34397;51.176;6.738;2023-09-19T08:34:22;16.20;68.20
48551;DHT22;34397;51.176;6.738;2023-09-19T08:36:56;16.30;68.20
48551;DHT22;34397;51.176;6.738;2023-09-19T08:39:28;16.40;68.70
48551;DHT22;34397;51.176;6.738;2023-09-19T08:42:03;16.40;68.00
48551;DHT22;34397;51.176;6.738;2023-09-19T08:44:36;16.50;67.00
48551;DHT22;34397;51.176;6.738;2023-09-19T08:47:14;16.60;66.40
48551;DHT22;34397;51.176;6.738;2023-09-19T08:49:56;16.60;67.00
48551;DHT22;34397;51.176;6.738;2023-09-19T08:52:42;16.70;66.20
48551;DHT22;34397;51.176;6.738;2023-09-19T08:55:17;16.60;65.20
48551;DHT22;34397;51.176;6.738;2023-09-19T08:57:59;16.70;66.20
48551;DHT22;34397;51.176;6.738;2023-09-19T09:00:35;16.70;65.90
48551;DHT22;34397;51.176;6.738;2023-09-19T09:03:09;16.80;66.10
48551;DHT22;34397;51.176;6.738;2023-09-19T09:05:43;16.80;65.60
48551;DHT22;34397;51.176;6.738;2023-09-19T09:08:19;16.90;65.70
48551;DHT22;34397;51.176;6.738;2023-09-19T09:10:52;17.00;65.20
48551;DHT22;34397;51.176;6.738;2023-09-19T09:13:25;17.10;65.30
48551;DHT22;34397;51.176;6.738;2023-09-19T09:15:58;17.10;64.30
48551;DHT22;34397;51.176;6.738;2023-09-19T09:18:30;17.20;64.80
48551;DHT22;34397;51.176;6.738;2023-09-19T09:21:02;17.40;64.80
48551;DHT22;34397;51.176;6.738;2023-09-19T09:23:34;17.50;63.80
48551;DHT22;34397;51.176;6.738;2023-09-19T09:26:06;17.60;63.70
48551;DHT22;34397;51.176;6.738;2023-09-19T09:28:46;17.70;62.70
48551;DHT22;34397;51.176;6.738;2023-09-19T09:31:24;17.70;63.10
48551;DHT22;34397;51.176;6.738;2023-09-19T09:33:56;17.80;62.90
48551;DHT22;34397;51.176;6.738;2023-09-19T09:36:36;17.90;62.00
48551;DHT22;34397;51.176;6.738;2023-09-19T09:39:09;18.00;62.30
48551;DHT22;34397;51.176;6.738;2023-09-19T09:41:55;18.10;61.00
48551;DHT22;34397;51.176;6.738;2023-09-19T09:44:31;18.20;61.10
48551;DHT22;34397;51.176;6.738;2023-09-19T09:47:03;18.20;61.10
48551;DHT22;34397;51.176;6.738;2023-09-19T09:49:52;18.30;60.90
48551;DHT22;34397;51.176;6.738;2023-09-19T09:52:46;18.40;60.70
48551;DHT22;34397;51.176;6.738;2023-09-19T09:55:18;18.40;60.10
48551;DHT22;34397;51.176;6.738;2023-09-19T09:58:15;18.50;59.60
48551;DHT22;34397;51.176;6.738;2023-09-19T10:00:56;18.60;59.90
48551;DHT22;34397;51.176;6.738;2023-09-19T10:03:33;18.60;59.50
48551;DHT22;34397;51.176;6.738;2023-09-19T10:06:11;18.70;58.50
48551;DHT22;34397;51.176;6.738;2023-09-19T10:09:03;18.90;58.90
48551;DHT22;34397;51.176;6.738;2023-09-19T10:11:43;19.10;57.90
48551;DHT22;34397;51.176;6.738;2023-09-19T10:14:17;19.40;57.30
48551;DHT22;34397;51.176;6.738;2023-09-19T10:16:56;19.50;57.10
48551;DHT22;34397;51.176;6.738;2023-09-19T10:19:37;19.70;57.00
48551;DHT22;34397;51.176;6.738;2023-09-19T10:22:17;19.90;56.20
48551;DHT22;34397;51.176;6.738;2023-09-19T10:24:53;20.10;56.50
48551;DHT22;34397;51.176;6.738;2023-09-19T10:27:26;20.30;55.10
48551;DHT22;34397;51.176;6.738;2023-09-19T10:29:59;20.50;54.80
48551;DHT22;34397;51.176;6.738;2023-09-19T10:32:35;20.60;55.10
48551;DHT22;34397;51.176;6.738;2023-09-19T10:35:08;20.70;53.90
48551;DHT22;34397;51.176;6.738;2023-09-19T10:37:41;20.90;53.00
48551;DHT22;34397;51.176;6.738;2023-09-19T10:40:15;21.00;53.60
48551;DHT22;34397;51.176;6.738;2023-09-19T10:42:48;21.10;53.90
48551;DHT22;34397;51.176;6.738;2023-09-19T10:45:21;21.30;52.60
48551;DHT22;34397;51.176;6.738;2023-09-19T10:47:57;21.50;51.80
48551;DHT22;34397;51.176;6.738;2023-09-19T10:53:20;21.80;51.80
48551;DHT22;34397;51.176;6.738;2023-09-19T10:55:56;21.90;50.50
48551;DHT22;34397;51.176;6.738;2023-09-19T10:58:31;22.00;50.20
48551;DHT22;34397;51.176;6.738;2023-09-19T11:01:05;22.00;50.00
48551;DHT22;34397;51.176;6.738;2023-09-19T11:03:44;22.10;50.50
48551;DHT22;34397;51.176;6.738;2023-09-19T11:06:19;22.30;50.00
48551;DHT22;34397;51.176;6.738;2023-09-19T11:09:01;22.40;50.00
48551;DHT22;34397;51.176;6.738;2023-09-19T11:11:48;22.60;50.60
48551;DHT22;34397;51.176;6.738;2023-09-19T11:14:41;22.90;49.50
48551;DHT22;34397;51.176;6.738;2023-09-19T11:17:42;23.10;49.30
48551;DHT22;34397;51.176;6.738;2023-09-19T11:20:21;23.20;48.80
48551;DHT22;34397;51.176;6.738;2023-09-19T11:23:17;23.30;47.90
48551;DHT22;34397;51.176;6.738;2023-09-19T11:25:53;23.40;45.90
48551;DHT22;34397;51.176;6.738;2023-09-19T11:28:29;23.50;47.00
48551;DHT22;34397;51.176;6.738;2023-09-19T11:35:01;23.90;45.60
48551;DHT22;34397;51.176;6.738;2023-09-19T11:38:01;24.20;46.50
48551;DHT22;34397;51.176;6.738;2023-09-19T11:40:46;24.50;44.30
48551;DHT22;34397;51.176;6.738;2023-09-19T11:43:28;24.70;45.50
48551;DHT22;34397;51.176;6.738;2023-09-19T11:46:07;25.00;44.40
48551;DHT22;34397;51.176;6.738;2023-09-19T11:48:39;25.00;43.50
48551;DHT22;34397;51.176;6.738;2023-09-19T11:51:16;25.20;42.80
48551;DHT22;34397;51.176;6.738;2023-09-19T11:53:58;25.20;41.60
48551;DHT22;34397;51.176;6.738;2023-09-19T11:56:30;25.30;41.30
48551;DHT22;34397;51.176;6.738;2023-09-19T11:59:02;25.30;42.50
48551;DHT22;34397;51.176;6.738;2023-09-19T12:01:38;25.30;41.80
48551;DHT22;34397;51.176;6.738;2023-09-19T12:04:15;25.40;41.40
48551;DHT22;34397;51.176;6.738;2023-09-19T12:06:56;25.50;41.30
48551;DHT22;34397;51.176;6.738;2023-09-19T12:09:30;25.60;41.00
48551;DHT22;34397;51.176;6.738;2023-09-19T12:12:02;25.70;40.10
48551;DHT22;34397;51.176;6.738;2023-09-19T12:14:34;25.70;39.60
48551;DHT22;34397;51.176;6.738;2023-09-19T12:17:06;25.60;40.40
48551;DHT22;34397;51.176;6.738;2023-09-19T12:19:38;25.60;39.70
48551;DHT22;34397;51.176;6.738;2023-09-19T12:22:09;25.70;39.60
48551;DHT22;34397;51.176;6.738;2023-09-19T12:24:43;25.70;41.50
48551;DHT22;34397;51.176;6.738;2023-09-19T12:27:15;25.90;41.10
48551;DHT22;34397;51.176;6.738;2023-09-19T12:29:48;26.10;40.20
48551;DHT22;34397;51.176;6.738;2023-09-19T12:32:34;26.20;40.40
48551;DHT22;34397;51.176;6.738;2023-09-19T12:35:06;26.40;40.20
48551;DHT22;34397;51.176;6.738;2023-09-19T12:37:43;26.60;40.60
48551;DHT22;34397;51.176;6.738;2023-09-19T12:40:21;26.70;41.10
48551;DHT22;34397;51.176;6.738;2023-09-19T12:42:58;26.80;39.70
48551;DHT22;34397;51.176;6.738;2023-09-19T12:45:33;26.90;39.40
48551;DHT22;34397;51.176;6.738;2023-09-19T12:48:24;26.70;37.80
48551;DHT22;34397;51.176;6.738;2023-09-19T12:51:03;26.80;38.10
48551;DHT22;34397;51.176;6.738;2023-09-19T12:53:37;26.90;38.00
48551;DHT22;34397;51.176;6.738;2023-09-19T12:56:15;27.00;38.30
48551;DHT22;34397;51.176;6.738;2023-09-19T12:58:49;27.10;38.50
48551;DHT22;34397;51.176;6.738;2023-09-19T13:01:25;27.20;38.50
48551;DHT22;34397;51.176;6.738;2023-09-19T13:04:11;27.30;37.70
48551;DHT22;34397;51.176;6.738;2023-09-19T13:06:51;27.50;38.90
48551;DHT22;34397;51.176;6.738;2023-09-19T13:09:28;27.40;37.70
48551;DHT22;34397;51.176;6.738;2023-09-19T13:12:34;27.20;38.10
48551;DHT22;34397;51.176;6.738;2023-09-19T13:15:08;27.10;37.20
48551;DHT22;34397;51.176;6.738;2023-09-19T13:17:44;27.20;37.60
48551;DHT22;34397;51.176;6.738;2023-09-19T13:20:23;27.00;38.20
48551;DHT22;34397;51.176;6.738;2023-09-19T13:22:59;26.80;38.00
48551;DHT22;34397;51.176;6.738;2023-09-19T13:25:38;26.80;38.40
48551;DHT22;34397;51.176;6.738;2023-09-19T13:28:12;26.60;39.10
48551;DHT22;34397;51.176;6.738;2023-09-19T13:30:43;26.60;39.40
48551;DHT22;34397;51.176;6.738;2023-09-19T13:33:16;26.60;39.80
48551;DHT22;34397;51.176;6.738;2023-09-19T13:35:51;26.60;39.50
48551;DHT22;34397;51.176;6.738;2023-09-19T13:38:23;26.70;39.60
48551;DHT22;34397;51.176;6.738;2023-09-19T13:40:55;26.70;40.00
48551;DHT22;34397;51.176;6.738;2023-09-19T13:43:29;26.60;40.20
48551;DHT22;34397;51.176;6.738;2023-09-19T13:46:01;26.70;39.40
48551;DHT22;34397;51.176;6.738;2023-09-19T13:48:33;26.50;39.50
48551;DHT22;34397;51.176;6.738;2023-09-19T13:51:05;26.20;39.90
48551;DHT22;34397;51.176;6.738;2023-09-19T13:53:37;25.90;39.70
48551;DHT22;34397;51.176;6.738;2023-09-19T13:56:09;25.60;40.00
48551;DHT22;34397;51.176;6.738;2023-09-19T13:58:42;25.20;40.70
48551;DHT22;34397;51.176;6.738;2023-09-19T14:01:14;24.90;41.80
48551;DHT22;34397;51.176;6.738;2023-09-19T14:03:46;24.60;41.70
48551;DHT22;34397;51.176;6.738;2023-09-19T14:06:21;24.30;42.30
48551;DHT22;34397;51.176;6.738;2023-09-19T14:08:53;23.90;43.20
48551;DHT22;34397;51.176;6.738;2023-09-19T14:11:25;23.70;43.80
48551;DHT22;34397;51.176;6.738;2023-09-19T14:13:59;23.40;43.80
48551;DHT22;34397;51.176;6.738;2023-09-19T14:16:31;23.20;44.50
48551;DHT22;34397;51.176;6.738;2023-09-19T14:19:04;23.10;44.90
48551;DHT22;34397;51.176;6.738;2023-09-19T14:21:36;22.90;45.30
48551;DHT22;34397;51.176;6.738;2023-09-19T14:24:09;22.70;45.00
48551;DHT22;34397;51.176;6.738;2023-09-19T14:26:42;22.60;45.30
48551;DHT22;34397;51.176;6.738;2023-09-19T14:29:16;22.50;45.90
48551;DHT22;34397;51.176;6.738;2023-09-19T14:31:48;22.50;46.70
48551;DHT22;34397;51.176;6.738;2023-09-19T14:34:20;22.50;46.30
48551;DHT22;34397;51.176;6.738;2023-09-19T14:36:51;22.50;46.30
48551;DHT22;34397;51.176;6.738;2023-09-19T14:39:24;22.50;46.10
48551;DHT22;34397;51.176;6.738;2023-09-19T14:41:57;22.40;46.40
48551;DHT22;34397;51.176;6.738;2023-09-19T14:44:31;22.40;47.10
48551;DHT22;34397;51.176;6.738;2023-09-19T14:47:03;22.30;47.40
48551;DHT22;34397;51.176;6.738;2023-09-19T14:49:36;22.30;47.10
48551;DHT22;34397;51.176;6.738;2023-09-19T14:52:12;22.20;47.00
48551;DHT22;34397;51.176;6.738;2023-09-19T14:54:46;22.10;46.60
48551;DHT22;34397;51.176;6.738;2023-09-19T14:57:17;22.10;46.90
48551;DHT22;34397;51.176;6.738;2023-09-19T14:59:51;22.00;47.40
48551;DHT22;34397;51.176;6.738;2023-09-19T15:02:22;21.90;46.60
48551;DHT22;34397;51.176;6.738;2023-09-19T15:04:55;21.90;47.00
48551;DHT22;34397;51.176;6.738;2023-09-19T15:07:27;21.70;47.80
48551;DHT22;34397;51.176;6.738;2023-09-19T15:09:59;21.70;47.10
48551;DHT22;34397;51.176;6.738;2023-09-19T15:12:31;21.50;47.60
48551;DHT22;34397;51.176;6.738;2023-09-19T15:15:06;21.50;47.60
48551;DHT22;34397;51.176;6.738;2023-09-19T15:17:39;21.40;48.10
48551;DHT22;34397;51.176;6.738;2023-09-19T15:20:14;21.40;47.80
48551;DHT22;34397;51.176;6.738;2023-09-19T15:22:49;21.30;47.90
48551;DHT22;34397;51.176;6.738;2023-09-19T15:25:21;21.20;48.60
48551;DHT22;34397;51.176;6.738;2023-09-19T15:27:53;21.20;49.10
48551;DHT22;34397;51.176;6.738;2023-09-19T15:30:27;21.20;49.00
48551;DHT22;34397;51.176;6.738;2023-09-19T15:32:58;21.10;49.30
48551;DHT22;34397;51.176;6.738;2023-09-19T15:35:30;21.10;49.30
48551;DHT22;34397;51.176;6.738;2023-09-19T15:38:03;21.10;49.00
48551;DHT22;34397;51.176;6.738;2023-09-19T15:40:35;21.00;49.20
48551;DHT22;34397;51.176;6.738;2023-09-19T15:43:07;21.00;49.70
48551;DHT22;34397;51.176;6.738;2023-09-19T15:45:40;21.00;50.20
48551;DHT22;34397;51.176;6.738;2023-09-19T15:48:12;21.00;48.90
48551;DHT22;34397;51.176;6.738;2023-09-19T15:50:44;21.00;49.30
48551;DHT22;34397;51.176;6.738;2023-09-19T15:53:15;21.00;50.00
48551;DHT22;34397;51.176;6.738;2023-09-19T15:55:48;21.00;50.10
48551;DHT22;34397;51.176;6.738;2023-09-19T15:58:20;21.00;49.60
48551;DHT22;34397;51.176;6.738;2023-09-19T16:00:53;21.00;49.50
48551;DHT22;34397;51.176;6.738;2023-09-19T16:03:26;21.00;49.90
48551;DHT22;34397;51.176;6.738;2023-09-19T16:05:58;21.00;50.20
48551;DHT22;34397;51.176;6.738;2023-09-19T16:08:30;21.00;50.20
48551;DHT22;34397;51.176;6.738;2023-09-19T16:11:02;21.00;50.40
48551;DHT22;34397;51.176;6.738;2023-09-19T16:13:34;21.00;50.40
48551;DHT22;34397;51.176;6.738;2023-09-19T16:16:07;21.00;50.10
48551;DHT22;34397;51.176;6.738;2023-09-19T16:18:45;21.00;50.10
48551;DHT22;34397;51.176;6.738;2023-09-19T16:21:19;21.00;50.30
48551;DHT22;34397;51.176;6.738;2023-09-19T16:23:51;21.00;50.30
48551;DHT22;34397;51.176;6.738;2023-09-19T16:26:24;21.00;50.50
48551;DHT22;34397;51.176;6.738;2023-09-19T16:28:58;21.00;50.40